首页
METAR-TAF:

METAR-TAF

机场 :

特里布万国际机场

加德滿都, 尼泊尔

纬度: 27-42N, 经度: 085-22E, 海拔: 1337米

当前天气观测

该预报发布于1小时和15分钟前的18:20 UTC
风速2节,风向多变
温度 22°C
湿度 83%
气压 1014 hPa
能見度: 6000
少量云层高于2000英尺

METAR: VNKT 231820Z VRB02KT 6000 FEW020 22/19 Q1014 NOSIG

时间: 01:20 (19:35 UTC)

预报

该预报发布于2小时和35分钟前的17:00 UTC
预报有效从23日的 18点(UTC)到 24日的 18点(UTC)
风速4节,风向南转南东
能見度: 6000
少量云层高于2000英尺
散云层高于10000英尺
成为
从 24日的 00点(UTC)到 24日的 02点(UTC)
风速2节,风向多变
能見度: 4000
少量云层高于1000英尺
轻雾
成为
从 24日的 04点(UTC)到 24日的 05点(UTC)
风速4节,风向南转西南
能見度: 6000
少量云层高于1500英尺
成为
从 24日的 07点(UTC)到 24日的 08点(UTC)
风速8节,风向西转西北
能見度: 8000
少量云层高于2000英尺
散云层高于3000英尺
多云层高于10000英尺
几率 40%
从 24日的 08点(UTC)到 24日的 14点(UTC)
风速10节,风向多变
能見度: 4000
少量云层高于2500英尺, 积雨云.
雷暴, 小雨
成为
从 24日的 14点(UTC)到 24日的 15点(UTC)
风速4节,风向南转南东
能見度: 6000
少量云层高于1500英尺

TAF: VNKT 231700Z 2318/2418 16004KT 6000 FEW020 SCT100 BECMG 2400/2402 VRB02KT 4000 BR FEW010 BECMG 2404/2405 20004KT 6000 FEW015 BECMG 2407/2408 30008KT 8000 FEW020 SCT030 BKN100 PROB40 2408/2414 VRB10KT 4000 -TSRA FEW025CB BECMG 2414/2415 16004KT 6000 FEW015

超过4000个机场的气象观测和天气预报(METAR&TAF报告)。

可查询的气象台以黄色和红色小点在地图上表示。

将鼠标移到小点上方,可查看气象台名称。

然后点击查看天气观测和预报。

如需切换地图:点击带黑十字的绿色按钮放大地图;点击带横线的绿色按钮缩小地图;或者点击绿色箭头查看邻近地区的地图。


METAR-TAF: